sensor_id;sensor_type;location;lat;lon;timestamp;P1;durP1;ratioP1;P2;durP2;ratioP2
6185;SDS011;3126;52.738;8.316;2022-08-21T00:03:36;7.80;;;3.60;;
6185;SDS011;3126;52.738;8.316;2022-08-21T00:08:36;6.38;;;2.92;;
6185;SDS011;3126;52.738;8.316;2022-08-21T00:13:37;5.93;;;3.28;;
6185;SDS011;3126;52.738;8.316;2022-08-21T00:18:38;5.18;;;2.95;;
6185;SDS011;3126;52.738;8.316;2022-08-21T00:23:39;9.65;;;3.50;;
6185;SDS011;3126;52.738;8.316;2022-08-21T00:28:40;3.80;;;3.50;;
6185;SDS011;3126;52.738;8.316;2022-08-21T00:33:41;10.48;;;3.97;;
6185;SDS011;3126;52.738;8.316;2022-08-21T00:38:42;8.95;;;4.25;;
6185;SDS011;3126;52.738;8.316;2022-08-21T00:43:42;4.60;;;3.17;;
6185;SDS011;3126;52.738;8.316;2022-08-21T00:48:43;3.75;;;3.17;;
6185;SDS011;3126;52.738;8.316;2022-08-21T00:53:43;4.55;;;3.45;;
6185;SDS011;3126;52.738;8.316;2022-08-21T00:58:45;4.70;;;3.13;;
6185;SDS011;3126;52.738;8.316;2022-08-21T01:03:47;5.82;;;4.00;;
6185;SDS011;3126;52.738;8.316;2022-08-21T01:08:48;7.30;;;4.00;;
6185;SDS011;3126;52.738;8.316;2022-08-21T01:13:49;4.95;;;3.67;;
6185;SDS011;3126;52.738;8.316;2022-08-21T01:18:50;6.13;;;3.38;;
6185;SDS011;3126;52.738;8.316;2022-08-21T01:23:51;8.13;;;4.00;;
6185;SDS011;3126;52.738;8.316;2022-08-21T01:29:11;5.70;;;4.00;;
6185;SDS011;3126;52.738;8.316;2022-08-21T01:34:22;7.50;;;3.85;;
6185;SDS011;3126;52.738;8.316;2022-08-21T01:39:23;4.63;;;3.30;;
6185;SDS011;3126;52.738;8.316;2022-08-21T01:44:23;4.85;;;3.42;;
6185;SDS011;3126;52.738;8.316;2022-08-21T01:49:24;4.18;;;3.58;;
6185;SDS011;3126;52.738;8.316;2022-08-21T01:54:25;6.70;;;3.75;;
6185;SDS011;3126;52.738;8.316;2022-08-21T01:59:27;6.63;;;3.13;;
6185;SDS011;3126;52.738;8.316;2022-08-21T02:04:28;4.82;;;4.18;;
6185;SDS011;3126;52.738;8.316;2022-08-21T02:09:28;5.13;;;4.57;;
6185;SDS011;3126;52.738;8.316;2022-08-21T02:14:29;6.15;;;4.07;;
6185;SDS011;3126;52.738;8.316;2022-08-21T02:19:30;5.38;;;3.90;;
6185;SDS011;3126;52.738;8.316;2022-08-21T02:24:31;5.80;;;3.78;;
6185;SDS011;3126;52.738;8.316;2022-08-21T02:29:31;4.70;;;4.20;;
6185;SDS011;3126;52.738;8.316;2022-08-21T02:34:31;5.75;;;4.25;;
6185;SDS011;3126;52.738;8.316;2022-08-21T02:39:32;6.13;;;4.40;;
6185;SDS011;3126;52.738;8.316;2022-08-21T02:44:33;4.25;;;3.85;;
6185;SDS011;3126;52.738;8.316;2022-08-21T02:49:33;5.82;;;4.30;;
6185;SDS011;3126;52.738;8.316;2022-08-21T02:54:34;6.05;;;4.90;;
6185;SDS011;3126;52.738;8.316;2022-08-21T02:59:34;6.68;;;4.10;;
6185;SDS011;3126;52.738;8.316;2022-08-21T03:04:35;4.38;;;3.78;;
6185;SDS011;3126;52.738;8.316;2022-08-21T03:09:36;6.90;;;4.13;;
6185;SDS011;3126;52.738;8.316;2022-08-21T03:14:37;5.00;;;4.45;;
6185;SDS011;3126;52.738;8.316;2022-08-21T03:19:38;10.05;;;4.97;;
6185;SDS011;3126;52.738;8.316;2022-08-21T03:24:39;4.88;;;4.18;;
6185;SDS011;3126;52.738;8.316;2022-08-21T03:29:39;5.10;;;4.28;;
6185;SDS011;3126;52.738;8.316;2022-08-21T03:34:40;5.78;;;5.07;;
6185;SDS011;3126;52.738;8.316;2022-08-21T03:39:42;6.10;;;4.88;;
6185;SDS011;3126;52.738;8.316;2022-08-21T03:44:42;6.20;;;5.40;;
6185;SDS011;3126;52.738;8.316;2022-08-21T03:49:43;7.35;;;5.07;;
6185;SDS011;3126;52.738;8.316;2022-08-21T03:54:44;7.70;;;4.97;;
6185;SDS011;3126;52.738;8.316;2022-08-21T03:59:45;6.30;;;5.20;;
6185;SDS011;3126;52.738;8.316;2022-08-21T04:04:46;7.72;;;5.22;;
6185;SDS011;3126;52.738;8.316;2022-08-21T04:09:47;8.57;;;4.60;;
6185;SDS011;3126;52.738;8.316;2022-08-21T04:14:47;7.80;;;5.15;;
6185;SDS011;3126;52.738;8.316;2022-08-21T04:19:48;6.63;;;6.03;;
6185;SDS011;3126;52.738;8.316;2022-08-21T04:24:49;7.63;;;6.30;;
6185;SDS011;3126;52.738;8.316;2022-08-21T04:29:49;8.57;;;6.25;;
6185;SDS011;3126;52.738;8.316;2022-08-21T04:34:50;9.52;;;6.25;;
6185;SDS011;3126;52.738;8.316;2022-08-21T04:39:50;11.88;;;7.00;;
6185;SDS011;3126;52.738;8.316;2022-08-21T04:44:51;9.70;;;7.65;;
6185;SDS011;3126;52.738;8.316;2022-08-21T04:49:52;12.95;;;7.63;;
6185;SDS011;3126;52.738;8.316;2022-08-21T04:54:52;10.25;;;7.47;;
6185;SDS011;3126;52.738;8.316;2022-08-21T04:59:53;9.05;;;7.63;;
6185;SDS011;3126;52.738;8.316;2022-08-21T05:04:53;11.95;;;8.07;;
6185;SDS011;3126;52.738;8.316;2022-08-21T05:09:55;10.25;;;7.78;;
6185;SDS011;3126;52.738;8.316;2022-08-21T05:14:57;8.15;;;7.35;;
6185;SDS011;3126;52.738;8.316;2022-08-21T05:19:57;10.80;;;8.07;;
6185;SDS011;3126;52.738;8.316;2022-08-21T05:24:58;10.25;;;7.88;;
6185;SDS011;3126;52.738;8.316;2022-08-21T05:29:59;12.63;;;7.97;;
6185;SDS011;3126;52.738;8.316;2022-08-21T05:35:00;12.35;;;8.35;;
6185;SDS011;3126;52.738;8.316;2022-08-21T05:40:02;10.82;;;8.00;;
6185;SDS011;3126;52.738;8.316;2022-08-21T05:45:04;11.73;;;8.48;;
6185;SDS011;3126;52.738;8.316;2022-08-21T05:50:05;15.82;;;8.77;;
6185;SDS011;3126;52.738;8.316;2022-08-21T05:55:06;10.20;;;7.38;;
6185;SDS011;3126;52.738;8.316;2022-08-21T06:00:07;9.52;;;7.22;;
6185;SDS011;3126;52.738;8.316;2022-08-21T06:05:12;9.85;;;8.07;;
6185;SDS011;3126;52.738;8.316;2022-08-21T06:10:13;9.93;;;7.18;;
6185;SDS011;3126;52.738;8.316;2022-08-21T06:15:13;10.27;;;7.22;;
6185;SDS011;3126;52.738;8.316;2022-08-21T06:20:14;9.90;;;6.68;;
6185;SDS011;3126;52.738;8.316;2022-08-21T06:25:15;10.30;;;7.32;;
6185;SDS011;3126;52.738;8.316;2022-08-21T06:30:15;10.90;;;6.38;;
6185;SDS011;3126;52.738;8.316;2022-08-21T06:35:17;9.02;;;6.20;;
6185;SDS011;3126;52.738;8.316;2022-08-21T06:40:17;8.63;;;5.90;;
6185;SDS011;3126;52.738;8.316;2022-08-21T06:45:18;7.32;;;5.65;;
6185;SDS011;3126;52.738;8.316;2022-08-21T06:50:19;10.10;;;5.93;;
6185;SDS011;3126;52.738;8.316;2022-08-21T06:55:19;13.70;;;5.63;;
6185;SDS011;3126;52.738;8.316;2022-08-21T07:00:20;7.35;;;5.40;;
6185;SDS011;3126;52.738;8.316;2022-08-21T07:05:21;7.90;;;4.97;;
6185;SDS011;3126;52.738;8.316;2022-08-21T07:10:25;9.35;;;5.07;;
6185;SDS011;3126;52.738;8.316;2022-08-21T07:15:29;7.15;;;4.63;;
6185;SDS011;3126;52.738;8.316;2022-08-21T07:20:30;5.47;;;4.55;;
6185;SDS011;3126;52.738;8.316;2022-08-21T07:25:31;9.32;;;4.90;;
6185;SDS011;3126;52.738;8.316;2022-08-21T07:30:32;7.88;;;4.70;;
6185;SDS011;3126;52.738;8.316;2022-08-21T07:35:32;6.40;;;4.40;;
6185;SDS011;3126;52.738;8.316;2022-08-21T07:40:33;6.65;;;5.20;;
6185;SDS011;3126;52.738;8.316;2022-08-21T07:45:34;8.40;;;4.22;;
6185;SDS011;3126;52.738;8.316;2022-08-21T07:50:35;5.88;;;3.88;;
6185;SDS011;3126;52.738;8.316;2022-08-21T07:55:35;7.63;;;3.80;;
6185;SDS011;3126;52.738;8.316;2022-08-21T08:00:36;6.05;;;3.88;;
6185;SDS011;3126;52.738;8.316;2022-08-21T08:05:37;8.45;;;4.10;;
6185;SDS011;3126;52.738;8.316;2022-08-21T08:10:39;7.65;;;3.80;;
6185;SDS011;3126;52.738;8.316;2022-08-21T08:15:40;6.75;;;3.85;;
6185;SDS011;3126;52.738;8.316;2022-08-21T08:20:40;7.50;;;4.03;;
6185;SDS011;3126;52.738;8.316;2022-08-21T08:25:41;6.65;;;3.05;;
6185;SDS011;3126;52.738;8.316;2022-08-21T08:30:42;4.68;;;3.13;;
6185;SDS011;3126;52.738;8.316;2022-08-21T08:35:45;8.15;;;3.00;;
6185;SDS011;3126;52.738;8.316;2022-08-21T08:45:51;6.35;;;3.00;;
6185;SDS011;3126;52.738;8.316;2022-08-21T08:55:54;6.88;;;3.10;;
6185;SDS011;3126;52.738;8.316;2022-08-21T09:00:56;8.10;;;3.17;;
6185;SDS011;3126;52.738;8.316;2022-08-21T09:06:07;6.60;;;2.65;;
6185;SDS011;3126;52.738;8.316;2022-08-21T09:21:20;6.00;;;2.95;;
6185;SDS011;3126;52.738;8.316;2022-08-21T09:26:27;5.35;;;2.55;;
6185;SDS011;3126;52.738;8.316;2022-08-21T09:31:31;7.85;;;2.78;;
6185;SDS011;3126;52.738;8.316;2022-08-21T09:36:37;3.42;;;2.15;;
6185;SDS011;3126;52.738;8.316;2022-08-21T09:41:39;7.13;;;2.55;;
6185;SDS011;3126;52.738;8.316;2022-08-21T09:46:49;5.07;;;2.17;;
6185;SDS011;3126;52.738;8.316;2022-08-21T09:51:51;4.38;;;2.05;;
6185;SDS011;3126;52.738;8.316;2022-08-21T09:56:55;4.60;;;2.30;;
6185;SDS011;3126;52.738;8.316;2022-08-21T10:07:19;8.68;;;2.63;;
6185;SDS011;3126;52.738;8.316;2022-08-21T10:12:24;6.05;;;2.45;;
6185;SDS011;3126;52.738;8.316;2022-08-21T10:22:45;6.63;;;2.40;;
6185;SDS011;3126;52.738;8.316;2022-08-21T10:49:17;4.30;;;1.67;;
6185;SDS011;3126;52.738;8.316;2022-08-21T10:59:38;4.65;;;1.85;;
6185;SDS011;3126;52.738;8.316;2022-08-21T11:04:43;6.18;;;2.05;;
6185;SDS011;3126;52.738;8.316;2022-08-21T11:09:48;3.58;;;1.67;;
6185;SDS011;3126;52.738;8.316;2022-08-21T11:15:37;3.88;;;2.00;;
6185;SDS011;3126;52.738;8.316;2022-08-21T11:20:16;5.68;;;2.38;;
6185;SDS011;3126;52.738;8.316;2022-08-21T11:25:23;5.03;;;2.47;;
6185;SDS011;3126;52.738;8.316;2022-08-21T11:30:27;5.78;;;3.20;;
6185;SDS011;3126;52.738;8.316;2022-08-21T11:46:00;7.22;;;2.45;;
6185;SDS011;3126;52.738;8.316;2022-08-21T11:56:14;3.35;;;2.38;;
6185;SDS011;3126;52.738;8.316;2022-08-21T12:01:21;5.60;;;3.20;;
6185;SDS011;3126;52.738;8.316;2022-08-21T12:06:42;5.25;;;3.70;;
6185;SDS011;3126;52.738;8.316;2022-08-21T12:11:46;5.88;;;4.28;;
6185;SDS011;3126;52.738;8.316;2022-08-21T12:16:48;7.50;;;4.22;;
6185;SDS011;3126;52.738;8.316;2022-08-21T12:26:53;4.45;;;4.05;;
6185;SDS011;3126;52.738;8.316;2022-08-21T12:31:57;5.65;;;4.45;;
6185;SDS011;3126;52.738;8.316;2022-08-21T12:37:41;6.05;;;5.38;;
6185;SDS011;3126;52.738;8.316;2022-08-21T12:42:41;7.38;;;6.38;;
6185;SDS011;3126;52.738;8.316;2022-08-21T12:48:07;6.68;;;5.78;;
6185;SDS011;3126;52.738;8.316;2022-08-21T12:58:51;7.40;;;5.97;;
6185;SDS011;3126;52.738;8.316;2022-08-21T13:03:54;6.20;;;5.60;;
6185;SDS011;3126;52.738;8.316;2022-08-21T13:08:57;5.90;;;5.00;;
6185;SDS011;3126;52.738;8.316;2022-08-21T13:14:00;6.93;;;4.40;;
6185;SDS011;3126;52.738;8.316;2022-08-21T13:19:04;8.80;;;4.65;;
6185;SDS011;3126;52.738;8.316;2022-08-21T13:24:07;7.15;;;3.92;;
6185;SDS011;3126;52.738;8.316;2022-08-21T13:29:21;8.50;;;3.95;;
6185;SDS011;3126;52.738;8.316;2022-08-21T13:34:23;4.93;;;3.92;;
6185;SDS011;3126;52.738;8.316;2022-08-21T13:39:25;5.22;;;3.70;;
6185;SDS011;3126;52.738;8.316;2022-08-21T13:49:35;4.85;;;2.92;;
6185;SDS011;3126;52.738;8.316;2022-08-21T13:54:38;6.45;;;2.90;;
6185;SDS011;3126;52.738;8.316;2022-08-21T13:59:40;5.28;;;3.03;;
6185;SDS011;3126;52.738;8.316;2022-08-21T14:04:50;4.30;;;2.53;;
6185;SDS011;3126;52.738;8.316;2022-08-21T14:09:51;4.00;;;1.88;;
6185;SDS011;3126;52.738;8.316;2022-08-21T14:14:53;2.42;;;1.60;;
6185;SDS011;3126;52.738;8.316;2022-08-21T14:19:55;3.42;;;1.95;;
6185;SDS011;3126;52.738;8.316;2022-08-21T14:30:17;2.58;;;1.52;;
6185;SDS011;3126;52.738;8.316;2022-08-21T14:35:19;3.72;;;1.63;;
6185;SDS011;3126;52.738;8.316;2022-08-21T14:40:22;3.20;;;2.03;;
6185;SDS011;3126;52.738;8.316;2022-08-21T14:45:27;2.95;;;2.00;;
6185;SDS011;3126;52.738;8.316;2022-08-21T14:50:28;3.35;;;1.45;;
6185;SDS011;3126;52.738;8.316;2022-08-21T14:55:30;3.05;;;1.65;;
6185;SDS011;3126;52.738;8.316;2022-08-21T15:00:52;2.03;;;1.10;;
6185;SDS011;3126;52.738;8.316;2022-08-21T15:05:54;2.90;;;1.67;;
6185;SDS011;3126;52.738;8.316;2022-08-21T15:10:55;3.33;;;1.50;;
6185;SDS011;3126;52.738;8.316;2022-08-21T15:15:57;4.03;;;1.52;;
6185;SDS011;3126;52.738;8.316;2022-08-21T15:25:58;1.30;;;1.00;;
6185;SDS011;3126;52.738;8.316;2022-08-21T15:30:59;1.73;;;1.20;;
6185;SDS011;3126;52.738;8.316;2022-08-21T15:36:00;2.55;;;1.30;;
6185;SDS011;3126;52.738;8.316;2022-08-21T15:41:02;2.10;;;1.02;;
6185;SDS011;3126;52.738;8.316;2022-08-21T15:46:03;3.10;;;1.55;;
6185;SDS011;3126;52.738;8.316;2022-08-21T15:51:05;2.53;;;1.50;;
6185;SDS011;3126;52.738;8.316;2022-08-21T15:56:10;2.85;;;1.63;;
6185;SDS011;3126;52.738;8.316;2022-08-21T16:01:12;3.53;;;1.20;;
6185;SDS011;3126;52.738;8.316;2022-08-21T16:06:13;1.23;;;1.08;;
6185;SDS011;3126;52.738;8.316;2022-08-21T16:11:14;3.13;;;1.08;;
6185;SDS011;3126;52.738;8.316;2022-08-21T16:16:16;1.17;;;0.80;;
6185;SDS011;3126;52.738;8.316;2022-08-21T16:21:18;3.08;;;1.40;;
6185;SDS011;3126;52.738;8.316;2022-08-21T16:26:19;2.92;;;0.98;;
6185;SDS011;3126;52.738;8.316;2022-08-21T16:31:20;3.10;;;1.67;;
6185;SDS011;3126;52.738;8.316;2022-08-21T16:36:23;4.20;;;1.20;;
6185;SDS011;3126;52.738;8.316;2022-08-21T16:41:29;0.88;;;0.80;;
6185;SDS011;3126;52.738;8.316;2022-08-21T16:46:32;2.63;;;1.13;;
6185;SDS011;3126;52.738;8.316;2022-08-21T16:51:33;4.20;;;1.25;;
6185;SDS011;3126;52.738;8.316;2022-08-21T16:56:34;2.40;;;1.27;;
6185;SDS011;3126;52.738;8.316;2022-08-21T17:01:36;3.67;;;1.45;;
6185;SDS011;3126;52.738;8.316;2022-08-21T17:06:37;2.25;;;1.17;;
6185;SDS011;3126;52.738;8.316;2022-08-21T17:11:42;3.22;;;1.20;;
6185;SDS011;3126;52.738;8.316;2022-08-21T17:16:47;3.28;;;1.63;;
6185;SDS011;3126;52.738;8.316;2022-08-21T17:21:49;3.47;;;1.20;;
6185;SDS011;3126;52.738;8.316;2022-08-21T17:26:50;3.05;;;1.35;;
6185;SDS011;3126;52.738;8.316;2022-08-21T17:31:52;2.10;;;1.27;;
6185;SDS011;3126;52.738;8.316;2022-08-21T17:36:53;4.68;;;1.60;;
6185;SDS011;3126;52.738;8.316;2022-08-21T17:41:54;3.40;;;1.30;;
6185;SDS011;3126;52.738;8.316;2022-08-21T17:46:56;4.88;;;1.45;;
6185;SDS011;3126;52.738;8.316;2022-08-21T17:51:57;2.75;;;1.50;;
6185;SDS011;3126;52.738;8.316;2022-08-21T17:56:59;2.08;;;1.30;;
6185;SDS011;3126;52.738;8.316;2022-08-21T18:02:00;3.88;;;1.65;;
6185;SDS011;3126;52.738;8.316;2022-08-21T18:07:02;3.78;;;1.58;;
6185;SDS011;3126;52.738;8.316;2022-08-21T18:12:03;5.28;;;1.67;;
6185;SDS011;3126;52.738;8.316;2022-08-21T18:17:08;6.88;;;1.77;;
6185;SDS011;3126;52.738;8.316;2022-08-21T18:22:09;3.75;;;1.50;;
6185;SDS011;3126;52.738;8.316;2022-08-21T18:27:11;3.42;;;1.65;;
6185;SDS011;3126;52.738;8.316;2022-08-21T18:37:14;4.72;;;2.45;;
6185;SDS011;3126;52.738;8.316;2022-08-21T18:42:16;3.05;;;1.98;;
6185;SDS011;3126;52.738;8.316;2022-08-21T18:47:20;4.00;;;2.00;;
6185;SDS011;3126;52.738;8.316;2022-08-21T18:52:22;5.78;;;2.40;;
6185;SDS011;3126;52.738;8.316;2022-08-21T18:57:24;5.55;;;2.13;;
6185;SDS011;3126;52.738;8.316;2022-08-21T19:02:28;5.35;;;2.17;;
6185;SDS011;3126;52.738;8.316;2022-08-21T19:07:28;3.95;;;1.73;;
6185;SDS011;3126;52.738;8.316;2022-08-21T19:12:29;5.00;;;2.03;;
6185;SDS011;3126;52.738;8.316;2022-08-21T19:17:31;4.53;;;2.15;;
6185;SDS011;3126;52.738;8.316;2022-08-21T19:22:32;6.78;;;2.65;;
6185;SDS011;3126;52.738;8.316;2022-08-21T19:27:33;7.32;;;2.58;;
6185;SDS011;3126;52.738;8.316;2022-08-21T19:32:34;5.05;;;2.45;;
6185;SDS011;3126;52.738;8.316;2022-08-21T19:37:44;4.38;;;3.08;;
6185;SDS011;3126;52.738;8.316;2022-08-21T19:42:45;6.55;;;2.38;;
6185;SDS011;3126;52.738;8.316;2022-08-21T19:47:46;3.60;;;2.10;;
6185;SDS011;3126;52.738;8.316;2022-08-21T19:52:48;5.75;;;2.38;;
6185;SDS011;3126;52.738;8.316;2022-08-21T19:57:49;6.53;;;2.22;;
6185;SDS011;3126;52.738;8.316;2022-08-21T20:02:51;8.70;;;2.60;;
6185;SDS011;3126;52.738;8.316;2022-08-21T20:07:52;5.82;;;2.53;;
6185;SDS011;3126;52.738;8.316;2022-08-21T20:12:53;6.32;;;2.50;;
6185;SDS011;3126;52.738;8.316;2022-08-21T20:17:54;5.85;;;2.80;;
6185;SDS011;3126;52.738;8.316;2022-08-21T20:22:55;6.80;;;3.28;;
6185;SDS011;3126;52.738;8.316;2022-08-21T20:27:56;5.00;;;2.50;;
6185;SDS011;3126;52.738;8.316;2022-08-21T20:32:56;6.18;;;3.08;;
6185;SDS011;3126;52.738;8.316;2022-08-21T20:37:57;6.30;;;2.70;;
6185;SDS011;3126;52.738;8.316;2022-08-21T20:42:58;8.32;;;2.80;;
6185;SDS011;3126;52.738;8.316;2022-08-21T20:53:11;8.20;;;3.20;;
6185;SDS011;3126;52.738;8.316;2022-08-21T20:59:05;3.65;;;2.97;;
6185;SDS011;3126;52.738;8.316;2022-08-21T21:04:03;6.60;;;2.90;;
6185;SDS011;3126;52.738;8.316;2022-08-21T21:09:12;9.05;;;3.40;;
6185;SDS011;3126;52.738;8.316;2022-08-21T21:14:17;10.73;;;3.70;;
6185;SDS011;3126;52.738;8.316;2022-08-21T21:19:41;7.10;;;2.72;;
6185;SDS011;3126;52.738;8.316;2022-08-21T21:35:23;6.88;;;3.20;;
6185;SDS011;3126;52.738;8.316;2022-08-21T21:45:55;5.85;;;3.67;;
6185;SDS011;3126;52.738;8.316;2022-08-21T21:51:27;6.82;;;3.42;;
6185;SDS011;3126;52.738;8.316;2022-08-21T21:56:57;5.65;;;3.45;;
6185;SDS011;3126;52.738;8.316;2022-08-21T22:07:47;7.35;;;3.65;;
6185;SDS011;3126;52.738;8.316;2022-08-21T22:12:55;6.28;;;3.83;;
6185;SDS011;3126;52.738;8.316;2022-08-21T22:18:09;6.40;;;3.85;;
6185;SDS011;3126;52.738;8.316;2022-08-21T22:23:16;6.10;;;3.58;;
6185;SDS011;3126;52.738;8.316;2022-08-21T22:28:24;7.53;;;3.80;;
6185;SDS011;3126;52.738;8.316;2022-08-21T22:33:26;7.82;;;3.65;;
6185;SDS011;3126;52.738;8.316;2022-08-21T22:38:30;5.53;;;3.72;;
6185;SDS011;3126;52.738;8.316;2022-08-21T22:43:33;5.60;;;3.70;;
6185;SDS011;3126;52.738;8.316;2022-08-21T22:48:36;6.95;;;4.00;;
6185;SDS011;3126;52.738;8.316;2022-08-21T22:53:50;8.05;;;4.32;;
6185;SDS011;3126;52.738;8.316;2022-08-21T22:58:55;9.18;;;4.95;;
6185;SDS011;3126;52.738;8.316;2022-08-21T23:03:57;7.32;;;3.78;;
6185;SDS011;3126;52.738;8.316;2022-08-21T23:09:00;7.07;;;3.67;;
6185;SDS011;3126;52.738;8.316;2022-08-21T23:14:01;8.15;;;4.10;;
6185;SDS011;3126;52.738;8.316;2022-08-21T23:35:20;10.85;;;4.78;;
6185;SDS011;3126;52.738;8.316;2022-08-21T23:40:53;7.97;;;4.78;;
6185;SDS011;3126;52.738;8.316;2022-08-21T23:51:11;9.98;;;4.40;;
6185;SDS011;3126;52.738;8.316;2022-08-21T23:56:18;7.88;;;4.60;;
